createdAt,value
2018-05-14T00:00:39.922Z,85.80
2018-05-14T00:03:07.547Z,85.82
2018-05-14T00:05:35.149Z,85.35
2018-05-14T00:08:03.100Z,85.01
2018-05-14T00:10:30.704Z,84.89
2018-05-14T00:12:58.304Z,84.67
2018-05-14T00:15:25.933Z,85.58
2018-05-14T00:17:53.534Z,84.78
2018-05-14T00:20:21.151Z,84.51
2018-05-14T00:22:48.749Z,84.30
2018-05-14T00:25:16.389Z,84.78
2018-05-14T00:27:43.977Z,84.99
2018-05-14T00:30:11.570Z,84.70
2018-05-14T00:32:39.209Z,84.96
2018-05-14T00:35:06.849Z,85.11
2018-05-14T00:37:34.478Z,85.35
2018-05-14T00:40:02.067Z,85.29
2018-05-14T00:42:29.703Z,85.44
2018-05-14T00:44:57.302Z,85.24
2018-05-14T00:47:24.902Z,85.44
2018-05-14T00:49:52.505Z,84.94
2018-05-14T00:52:20.105Z,85.40
2018-05-14T00:54:59.373Z,85.11
2018-05-14T00:57:26.953Z,85.13
2018-05-14T00:59:54.758Z,85.02
2018-05-14T01:02:22.351Z,84.95
2018-05-14T01:04:50.777Z,85.25
2018-05-14T01:07:18.389Z,85.66
2018-05-14T01:09:46.013Z,85.62
2018-05-14T01:12:13.625Z,85.18
2018-05-14T01:14:41.218Z,85.07
2018-05-14T01:17:08.844Z,85.11
2018-05-14T01:19:36.443Z,84.95
2018-05-14T01:22:04.237Z,85.17
2018-05-14T01:24:31.830Z,84.56
2018-05-14T01:26:59.520Z,84.45
2018-05-14T01:29:27.141Z,85.00
2018-05-14T01:31:54.733Z,85.29
2018-05-14T01:34:22.343Z,84.79
2018-05-14T01:36:49.937Z,83.38
2018-05-14T01:39:17.980Z,83.21
2018-05-14T01:41:45.567Z,83.74
2018-05-14T01:44:13.200Z,84.34
2018-05-14T01:46:40.820Z,84.11
2018-05-14T01:49:08.409Z,84.01
2018-05-14T01:51:36.038Z,84.20
2018-05-14T01:54:03.684Z,84.91
2018-05-14T01:56:31.825Z,84.99
2018-05-14T01:58:59.411Z,84.46
2018-05-14T02:01:26.997Z,85.23
2018-05-14T02:03:54.614Z,85.29
2018-05-14T02:06:22.202Z,85.29
2018-05-14T02:08:49.854Z,85.61
2018-05-14T02:11:17.457Z,85.37
2018-05-14T02:13:45.110Z,85.16
2018-05-14T02:16:12.706Z,84.54
2018-05-14T02:18:40.297Z,84.61
2018-05-14T02:21:07.915Z,84.82
2018-05-14T02:23:35.513Z,84.52
2018-05-14T02:26:03.141Z,84.85
2018-05-14T02:28:30.736Z,84.65
2018-05-14T02:30:58.345Z,85.21
2018-05-14T02:33:25.971Z,85.24
2018-05-14T02:35:53.575Z,84.98
2018-05-14T02:38:21.371Z,85.08
2018-05-14T02:40:48.968Z,85.04
2018-05-14T02:43:16.558Z,84.61
2018-05-14T02:45:44.183Z,84.56
2018-05-14T02:48:11.782Z,84.31
2018-05-14T02:50:39.407Z,84.11
2018-05-14T02:53:07.012Z,84.11
2018-05-14T02:55:34.913Z,84.14
2018-05-14T02:58:02.509Z,84.43
2018-05-14T03:00:30.113Z,84.31
2018-05-14T03:02:57.733Z,83.54
2018-05-14T03:05:25.313Z,83.85
2018-05-14T03:07:52.958Z,83.96
2018-05-14T03:10:20.552Z,83.96
2018-05-14T03:12:48.344Z,84.16
2018-05-14T03:15:15.941Z,84.37
2018-05-14T03:17:43.533Z,84.33
2018-05-14T03:20:11.153Z,84.30
2018-05-14T03:22:38.776Z,84.60
2018-05-14T03:25:06.417Z,84.37
2018-05-14T03:27:34.013Z,84.32
2018-05-14T03:30:01.782Z,84.17
2018-05-14T03:32:29.461Z,84.14
2018-05-14T03:34:57.159Z,84.61
2018-05-14T03:37:24.841Z,84.85
2018-05-14T03:39:52.504Z,84.75
2018-05-14T03:42:20.125Z,82.91
2018-05-14T03:44:47.746Z,83.73
2018-05-14T03:47:16.036Z,84.21
2018-05-14T03:49:43.642Z,84.00
2018-05-14T03:52:11.275Z,83.51
2018-05-14T03:54:38.913Z,83.24
2018-05-14T03:57:06.510Z,83.95
2018-05-14T03:59:45.811Z,84.06
2018-05-14T04:02:25.241Z,84.10
2018-05-14T04:05:04.658Z,83.80
2018-05-14T04:07:32.269Z,83.06
2018-05-14T04:09:59.914Z,83.48
2018-05-14T04:12:27.508Z,84.41
2018-05-14T04:14:55.100Z,84.13
2018-05-14T04:17:22.725Z,84.23
2018-05-14T04:19:50.329Z,83.73
2018-05-14T04:22:17.973Z,83.77
2018-05-14T04:24:45.578Z,83.54
2018-05-14T04:27:13.194Z,83.56
2018-05-14T04:29:40.913Z,83.13
2018-05-14T04:32:08.542Z,82.70
2018-05-14T04:34:36.133Z,82.48
2018-05-14T04:37:03.774Z,82.78
2018-05-14T04:39:31.373Z,82.34
2018-05-14T04:41:58.997Z,82.64
2018-05-14T04:44:26.581Z,82.99
2018-05-14T04:46:54.450Z,82.73
2018-05-14T04:49:22.053Z,80.66
2018-05-14T04:51:49.651Z,81.17
2018-05-14T04:54:17.341Z,79.64
2018-05-14T04:56:45.004Z,79.64
2018-05-14T04:59:12.697Z,79.71
2018-05-14T05:01:40.266Z,79.23
2018-05-14T05:04:07.954Z,79.24
2018-05-14T05:06:35.549Z,79.14
2018-05-14T05:09:03.171Z,78.53
2018-05-14T05:11:30.923Z,77.10
2018-05-14T05:13:58.487Z,77.73
2018-05-14T05:16:26.099Z,78.05
2018-05-14T05:18:53.776Z,78.61
2018-05-14T05:21:21.423Z,78.14
2018-05-14T05:23:49.046Z,77.33
2018-05-14T05:26:16.632Z,77.70
2018-05-14T05:28:44.241Z,76.85
2018-05-14T05:31:11.843Z,76.68
2018-05-14T05:33:39.735Z,76.83
2018-05-14T05:36:07.330Z,76.61
2018-05-14T05:38:34.929Z,76.75
2018-05-14T05:41:02.547Z,77.80
2018-05-14T05:43:30.137Z,76.61
2018-05-14T05:45:57.779Z,75.79
2018-05-14T05:48:25.379Z,76.18
2018-05-14T05:50:53.219Z,76.76
2018-05-14T05:53:20.841Z,77.25
2018-05-14T05:55:48.491Z,75.81
2018-05-14T05:58:16.128Z,75.10
2018-05-14T06:00:43.721Z,75.72
2018-05-14T06:03:11.341Z,75.11
2018-05-14T06:05:38.946Z,75.17
2018-05-14T06:08:06.689Z,75.12
2018-05-14T06:10:34.425Z,75.71
2018-05-14T06:13:02.037Z,74.88
2018-05-14T06:15:29.696Z,74.12
2018-05-14T06:17:57.295Z,75.28
2018-05-14T06:20:24.915Z,75.26
2018-05-14T06:22:52.576Z,73.94
2018-05-14T06:25:20.332Z,74.17
2018-05-14T06:27:48.019Z,73.50
2018-05-14T06:30:15.603Z,73.21
2018-05-14T06:32:43.210Z,73.66
2018-05-14T06:35:10.830Z,72.64
2018-05-14T06:37:38.447Z,71.52
2018-05-14T06:40:06.057Z,71.20
2018-05-14T06:42:33.695Z,72.74
2018-05-14T06:45:01.314Z,71.38
2018-05-14T06:47:28.920Z,71.22
2018-05-14T06:49:56.594Z,72.02
2018-05-14T06:52:24.162Z,70.74
2018-05-14T06:54:51.792Z,71.19
2018-05-14T06:57:19.388Z,68.77
2018-05-14T06:59:46.989Z,68.85
2018-05-14T07:02:14.617Z,68.74
2018-05-14T07:04:42.262Z,67.54
2018-05-14T07:07:10.090Z,66.90
2018-05-14T07:09:37.757Z,66.79
2018-05-14T07:12:05.353Z,66.41
2018-05-14T07:14:32.969Z,65.55
2018-05-14T07:17:00.566Z,65.71
2018-05-14T07:19:28.183Z,65.14
2018-05-14T07:21:55.801Z,65.28
2018-05-14T07:24:23.621Z,65.35
2018-05-14T07:26:51.212Z,64.19
2018-05-14T07:29:18.809Z,65.06
2018-05-14T07:31:46.530Z,64.31
2018-05-14T07:34:14.152Z,63.76
2018-05-14T07:36:41.787Z,62.25
2018-05-14T07:39:09.383Z,62.42
2018-05-14T07:41:37.041Z,62.02
2018-05-14T07:44:04.629Z,61.04
2018-05-14T07:46:32.225Z,60.74
2018-05-14T07:48:59.944Z,61.25
2018-05-14T07:51:27.490Z,60.84
2018-05-14T07:53:55.100Z,60.79
2018-05-14T07:56:22.717Z,59.90
2018-05-14T07:58:50.618Z,60.57
2018-05-14T08:01:18.263Z,61.04
2018-05-14T08:03:45.858Z,61.85
2018-05-14T08:06:13.503Z,58.72
2018-05-14T08:08:41.455Z,59.50
2018-05-14T08:11:09.409Z,58.42
2018-05-14T08:13:37.001Z,58.57
2018-05-14T08:16:04.839Z,58.06
2018-05-14T08:18:32.429Z,58.16
2018-05-14T08:21:00.258Z,58.33
2018-05-14T08:23:27.889Z,58.38
2018-05-14T08:25:55.502Z,57.46
2018-05-14T08:28:23.112Z,57.77
2018-05-14T08:30:50.698Z,59.24
2018-05-14T08:33:18.579Z,59.50
2018-05-14T08:35:46.173Z,58.40
2018-05-14T08:38:14.084Z,57.98
2018-05-14T08:40:41.900Z,58.39
2018-05-14T08:43:09.504Z,57.77
2018-05-14T08:45:37.127Z,57.50
2018-05-14T08:48:04.812Z,59.23
2018-05-14T08:50:32.635Z,56.84
2018-05-14T08:53:00.228Z,58.57
2018-05-14T08:55:27.811Z,55.69
2018-05-14T08:57:55.588Z,55.19
2018-05-14T09:00:23.200Z,54.27
2018-05-14T09:02:50.817Z,53.34
2018-05-14T09:05:18.419Z,53.86
2018-05-14T09:07:46.486Z,52.45
2018-05-14T09:10:14.078Z,53.32
2018-05-14T09:12:41.658Z,53.04
2018-05-14T09:15:09.270Z,52.48
2018-05-14T09:17:36.854Z,51.76
2018-05-14T09:20:04.477Z,52.34
2018-05-14T09:22:32.074Z,54.61
2018-05-14T09:24:59.927Z,51.93
2018-05-14T09:27:27.508Z,51.79
2018-05-14T09:29:55.104Z,51.71
2018-05-14T09:32:22.722Z,53.61
2018-05-14T09:34:50.337Z,54.87
2018-05-14T09:37:17.967Z,55.11
2018-05-14T09:39:45.568Z,54.97
2018-05-14T09:42:13.204Z,54.58
2018-05-14T09:44:40.792Z,53.49
2018-05-14T09:47:08.386Z,52.39
2018-05-14T09:49:36.013Z,51.58
2018-05-14T09:52:03.604Z,49.54
2018-05-14T09:54:31.232Z,49.88
2018-05-14T09:56:58.829Z,48.54
2018-05-14T09:59:26.588Z,47.11
2018-05-14T10:01:54.194Z,49.52
2018-05-14T10:04:21.841Z,49.89
2018-05-14T10:06:49.516Z,47.18
2018-05-14T10:09:17.104Z,47.69
2018-05-14T10:11:44.701Z,47.77
2018-05-14T10:14:12.436Z,46.78
2018-05-14T10:16:40.062Z,44.31
2018-05-14T10:19:07.667Z,45.41
2018-05-14T10:21:35.363Z,45.81
2018-05-14T10:24:02.977Z,47.00
2018-05-14T10:26:30.577Z,46.92
2018-05-14T10:28:58.203Z,46.67
2018-05-14T10:31:25.815Z,46.00
2018-05-14T10:33:53.658Z,47.02
2018-05-14T10:36:21.251Z,47.92
2018-05-14T10:38:48.833Z,46.17
2018-05-14T10:41:16.433Z,47.20
2018-05-14T10:43:44.034Z,45.87
2018-05-14T10:46:11.664Z,44.81
2018-05-14T10:48:39.269Z,44.81
2018-05-14T10:51:07.097Z,45.57
2018-05-14T10:53:34.693Z,47.24
2018-05-14T10:56:02.313Z,45.99
2018-05-14T10:58:30.141Z,46.19
2018-05-14T11:00:57.725Z,44.78
2018-05-14T11:03:25.357Z,44.65
2018-05-14T11:05:53.196Z,43.58
2018-05-14T11:08:21.090Z,44.78
2018-05-14T11:10:48.711Z,44.52
2018-05-14T11:13:16.679Z,44.30
2018-05-14T11:15:44.343Z,43.89
2018-05-14T11:18:12.100Z,44.66
2018-05-14T11:20:39.716Z,43.12
2018-05-14T11:23:07.596Z,45.69
2018-05-14T11:25:35.813Z,43.03
2018-05-14T11:28:03.392Z,44.22
2018-05-14T11:30:30.973Z,44.04
2018-05-14T11:32:58.702Z,41.76
2018-05-14T11:35:26.381Z,42.58
2018-05-14T11:37:53.944Z,41.44
2018-05-14T11:40:22.078Z,40.72
2018-05-14T11:42:50.039Z,40.19
2018-05-14T11:45:18.111Z,41.24
2018-05-14T11:47:45.794Z,42.67
2018-05-14T11:50:13.398Z,42.33
2018-05-14T11:52:40.982Z,43.00
2018-05-14T11:55:08.703Z,44.15
2018-05-14T11:57:36.301Z,44.29
2018-05-14T12:00:04.474Z,45.92
2018-05-14T12:02:32.078Z,44.49
2018-05-14T12:04:59.682Z,44.78
2018-05-14T12:07:27.298Z,44.68
2018-05-14T12:09:54.889Z,44.33
2018-05-14T12:12:22.627Z,44.94
2018-05-14T12:14:50.222Z,44.97
2018-05-14T12:17:17.898Z,45.30
2018-05-14T12:19:45.490Z,46.25
2018-05-14T12:22:13.178Z,44.70
2018-05-14T12:24:40.779Z,44.24
2018-05-14T12:27:08.751Z,43.96
2018-05-14T12:29:36.368Z,43.38
2018-05-14T12:32:04.062Z,46.18
2018-05-14T12:34:31.790Z,47.93
2018-05-14T12:36:59.570Z,46.36
2018-05-14T12:39:27.575Z,46.94
2018-05-14T12:41:55.303Z,48.05
2018-05-14T12:44:22.877Z,46.20
2018-05-14T12:46:50.486Z,44.14
2018-05-14T12:49:21.030Z,45.54
2018-05-14T12:51:49.196Z,43.69
2018-05-14T12:54:16.798Z,42.83
2018-05-14T12:56:44.397Z,40.64
2018-05-14T12:59:12.007Z,38.22
2018-05-14T13:01:39.607Z,35.95
2018-05-14T13:04:07.225Z,34.36
2018-05-14T13:06:34.816Z,32.86
2018-05-14T13:09:02.461Z,31.22
2018-05-14T13:11:30.055Z,28.35
2018-05-14T13:13:57.678Z,28.45
2018-05-14T13:16:25.303Z,24.79
2018-05-14T13:18:52.889Z,24.00
2018-05-14T13:21:20.508Z,24.20
2018-05-14T13:23:48.094Z,23.82
2018-05-14T13:26:15.895Z,22.77
2018-05-14T13:28:43.505Z,23.27
2018-05-14T13:31:11.116Z,23.30
2018-05-14T13:33:38.722Z,22.44
2018-05-14T13:36:06.317Z,23.68
2018-05-14T13:38:34.459Z,23.11
2018-05-14T13:41:02.062Z,22.24
2018-05-14T13:43:29.660Z,22.78
2018-05-14T13:45:57.265Z,22.01
2018-05-14T13:48:24.872Z,22.32
2018-05-14T13:50:52.514Z,21.88
2018-05-14T13:53:20.365Z,21.91
2018-05-14T13:55:47.987Z,20.86
2018-05-14T13:58:15.609Z,20.36
2018-05-14T14:00:43.194Z,21.04
2018-05-14T14:03:10.830Z,20.30
2018-05-14T14:05:38.415Z,21.07
2018-05-14T14:08:06.098Z,22.19
2018-05-14T14:10:33.777Z,22.87
2018-05-14T14:13:01.702Z,22.59
2018-05-14T14:15:29.305Z,23.40
2018-05-14T14:17:56.940Z,23.98
2018-05-14T14:20:24.655Z,26.31
2018-05-14T14:22:52.258Z,25.09
2018-05-14T14:25:20.121Z,25.24
2018-05-14T14:27:47.729Z,26.43
2018-05-14T14:30:15.323Z,27.15
2018-05-14T14:32:42.989Z,27.90
2018-05-14T14:35:10.584Z,29.64
2018-05-14T14:37:38.212Z,29.99
2018-05-14T14:40:05.847Z,30.68
2018-05-14T14:42:33.511Z,30.95
2018-05-14T14:45:01.126Z,31.42
2018-05-14T14:47:28.730Z,35.18
2018-05-14T14:49:56.389Z,39.35
2018-05-14T14:52:23.981Z,40.53
2018-05-14T14:54:51.689Z,41.94
2018-05-14T14:57:19.279Z,42.02
2018-05-14T14:59:47.082Z,42.57
2018-05-14T15:02:14.705Z,43.27
2018-05-14T15:04:42.332Z,43.79
2018-05-14T15:07:10.170Z,43.62
2018-05-14T15:09:37.754Z,45.18
2018-05-14T15:12:05.379Z,45.34
2018-05-14T15:14:32.985Z,45.31
2018-05-14T15:17:00.921Z,44.60
2018-05-14T15:19:28.533Z,45.40
2018-05-14T15:21:56.127Z,44.75
2018-05-14T15:24:23.755Z,44.94
2018-05-14T15:26:51.361Z,45.80
2018-05-14T15:29:18.974Z,46.04
2018-05-14T15:31:46.564Z,45.80
2018-05-14T15:34:14.532Z,46.03
2018-05-14T15:36:42.120Z,45.56
2018-05-14T15:39:09.725Z,45.79
2018-05-14T15:41:37.378Z,46.41
2018-05-14T15:44:04.977Z,45.52
2018-05-14T15:46:32.591Z,45.52
2018-05-14T15:49:00.205Z,45.26
2018-05-14T15:51:27.815Z,45.92
2018-05-14T15:53:55.439Z,47.46
2018-05-14T15:56:23.096Z,47.17
2018-05-14T15:58:50.657Z,47.89
2018-05-14T16:01:18.245Z,47.82
2018-05-14T16:03:45.877Z,48.22
2018-05-14T16:06:13.481Z,48.00
2018-05-14T16:08:41.082Z,47.80
2018-05-14T16:11:08.697Z,47.79
2018-05-14T16:13:36.291Z,47.26
2018-05-14T16:16:03.976Z,46.68
2018-05-14T16:18:31.575Z,47.36
2018-05-14T16:21:00.836Z,46.00
2018-05-14T16:23:28.596Z,45.98
2018-05-14T16:25:56.228Z,46.76
2018-05-14T16:28:23.903Z,46.90
2018-05-14T16:30:51.615Z,47.05
2018-05-14T16:33:19.367Z,47.66
2018-05-14T16:35:46.941Z,47.82
2018-05-14T16:38:14.562Z,47.89
2018-05-14T16:40:42.193Z,47.43
2018-05-14T16:43:09.785Z,46.79
2018-05-14T16:45:37.493Z,47.80
2018-05-14T16:48:05.118Z,47.80
2018-05-14T16:50:32.718Z,47.02
2018-05-14T16:53:00.571Z,47.74
2018-05-14T16:55:28.177Z,48.57
2018-05-14T16:57:55.881Z,48.06
2018-05-14T17:00:23.452Z,48.42
2018-05-14T17:02:51.070Z,48.21
2018-05-14T17:05:18.707Z,48.95
2018-05-14T17:07:46.351Z,48.31
2018-05-14T17:10:13.976Z,47.73
2018-05-14T17:12:41.608Z,44.71
2018-05-14T17:15:09.269Z,41.63
2018-05-14T17:17:37.068Z,39.37
2018-05-14T17:20:04.663Z,37.87
2018-05-14T17:22:32.262Z,36.76
2018-05-14T17:24:59.887Z,37.32
2018-05-14T17:27:27.476Z,37.02
2018-05-14T17:29:55.313Z,37.12
2018-05-14T17:32:22.914Z,37.68
2018-05-14T17:34:50.517Z,37.95
2018-05-14T17:37:18.150Z,37.64
2018-05-14T17:39:45.742Z,38.77
2018-05-14T17:42:13.381Z,37.96
2018-05-14T17:44:41.058Z,38.03
2018-05-14T17:47:08.689Z,38.18
2018-05-14T17:49:36.285Z,38.19
2018-05-14T17:52:03.980Z,38.28
2018-05-14T17:54:31.594Z,38.65
2018-05-14T17:56:59.186Z,38.76
2018-05-14T17:59:26.813Z,38.91
2018-05-14T18:01:54.424Z,38.97
2018-05-14T18:04:22.090Z,39.23
2018-05-14T18:06:49.707Z,39.37
2018-05-14T18:09:17.307Z,39.21
2018-05-14T18:11:44.952Z,39.47
2018-05-14T18:14:12.554Z,39.95
2018-05-14T18:16:40.170Z,39.31
2018-05-14T18:19:07.789Z,38.98
2018-05-14T18:21:38.459Z,39.33
2018-05-14T18:24:06.109Z,40.06
2018-05-14T18:26:39.266Z,40.41
2018-05-14T18:29:09.427Z,40.84
2018-05-14T18:31:42.581Z,40.79
2018-05-14T18:34:10.199Z,41.81
2018-05-14T18:36:37.811Z,42.89
2018-05-14T18:39:06.309Z,43.40
2018-05-14T18:41:33.910Z,43.32
2018-05-14T18:44:01.516Z,42.85
2018-05-14T18:46:29.156Z,41.91
2018-05-14T18:48:56.753Z,41.72
2018-05-14T18:51:24.392Z,41.86
2018-05-14T18:53:52.610Z,44.69
2018-05-14T18:56:20.214Z,45.41
2018-05-14T18:58:47.864Z,46.38
2018-05-14T19:01:15.528Z,46.30
2018-05-14T19:03:43.142Z,47.05
2018-05-14T19:06:10.739Z,46.79
2018-05-14T19:08:38.363Z,47.47
2018-05-14T19:11:11.684Z,47.36
2018-05-14T19:13:39.343Z,46.83
2018-05-14T19:16:12.645Z,47.08
2018-05-14T19:18:40.309Z,46.90
2018-05-14T19:21:07.898Z,47.13
2018-05-14T19:23:40.947Z,46.87
2018-05-14T19:26:08.542Z,47.06
2018-05-14T19:28:41.736Z,46.33
2018-05-14T19:31:09.336Z,46.54
2018-05-14T19:33:42.447Z,47.11
2018-05-14T19:36:10.154Z,48.16
2018-05-14T19:38:37.689Z,48.36
2018-05-14T19:41:05.294Z,48.66
2018-05-14T19:43:32.929Z,48.90
2018-05-14T19:46:00.529Z,48.18
2018-05-14T19:48:28.191Z,48.18
2018-05-14T19:50:55.813Z,48.67
2018-05-14T19:53:23.445Z,47.99
2018-05-14T19:55:51.030Z,46.68
2018-05-14T19:58:18.663Z,46.49
2018-05-14T20:00:46.268Z,45.97
2018-05-14T20:03:13.870Z,45.59
2018-05-14T20:05:41.504Z,45.17
2018-05-14T20:08:09.127Z,44.47
2018-05-14T20:10:36.754Z,44.60
2018-05-14T20:13:04.361Z,44.43
2018-05-14T20:15:32.033Z,44.76
2018-05-14T20:17:59.628Z,44.82
2018-05-14T20:20:27.257Z,45.10
2018-05-14T20:22:54.857Z,45.02
2018-05-14T20:25:22.786Z,45.09
2018-05-14T20:27:50.396Z,45.33
2018-05-14T20:30:17.991Z,45.43
2018-05-14T20:32:45.610Z,45.39
2018-05-14T20:35:13.227Z,45.46
2018-05-14T20:37:40.842Z,46.23
2018-05-14T20:40:08.460Z,46.13
2018-05-14T20:42:36.080Z,46.56
2018-05-14T20:45:03.689Z,46.32
2018-05-14T20:47:31.649Z,46.62
2018-05-14T20:49:59.478Z,46.68
2018-05-14T20:52:27.073Z,46.55
2018-05-14T20:54:54.686Z,46.70
2018-05-14T20:57:22.276Z,46.66
2018-05-14T20:59:49.990Z,46.82
2018-05-14T21:02:17.523Z,47.07
2018-05-14T21:04:45.130Z,47.03
2018-05-14T21:07:12.755Z,47.38
2018-05-14T21:09:40.380Z,47.44
2018-05-14T21:12:07.977Z,47.55
2018-05-14T21:14:35.577Z,48.57
2018-05-14T21:17:03.187Z,48.52
2018-05-14T21:19:30.789Z,49.01
2018-05-14T21:21:58.413Z,48.53
2018-05-14T21:24:26.013Z,48.92
2018-05-14T21:26:53.661Z,48.78
2018-05-14T21:29:21.266Z,48.88
2018-05-14T21:31:48.881Z,49.04
2018-05-14T21:34:16.489Z,49.62
2018-05-14T21:36:44.076Z,49.53
2018-05-14T21:39:11.954Z,50.38
2018-05-14T21:41:39.555Z,50.02
2018-05-14T21:44:07.148Z,49.98
2018-05-14T21:46:34.774Z,50.04
2018-05-14T21:49:02.369Z,50.22
2018-05-14T21:51:29.994Z,50.32
2018-05-14T21:53:57.594Z,50.49
2018-05-14T21:56:25.576Z,50.37
2018-05-14T21:58:53.169Z,50.38
2018-05-14T22:01:20.766Z,50.27
2018-05-14T22:03:48.393Z,50.68
2018-05-14T22:06:15.978Z,50.73
2018-05-14T22:08:43.598Z,51.23
2018-05-14T22:11:11.198Z,51.49
2018-05-14T22:13:39.119Z,52.49
2018-05-14T22:16:06.717Z,52.41
2018-05-14T22:18:34.317Z,52.36
2018-05-14T22:21:01.938Z,52.26
2018-05-14T22:23:29.526Z,52.56
2018-05-14T22:25:58.247Z,52.69
2018-05-14T22:28:25.850Z,53.14
2018-05-14T22:30:53.472Z,53.39
2018-05-14T22:33:21.095Z,53.51
2018-05-14T22:35:48.717Z,53.63
2018-05-14T22:38:16.336Z,53.87
2018-05-14T22:40:43.953Z,53.95
2018-05-14T22:43:11.585Z,53.94
2018-05-14T22:45:39.181Z,53.93
2018-05-14T22:48:06.775Z,54.28
2018-05-14T22:50:34.404Z,54.31
2018-05-14T22:53:01.996Z,54.47
2018-05-14T22:55:29.635Z,54.89
2018-05-14T22:57:57.319Z,54.62
2018-05-14T23:00:25.498Z,54.58
2018-05-14T23:02:53.092Z,55.04
2018-05-14T23:05:20.695Z,54.95
2018-05-14T23:07:48.318Z,54.96
2018-05-14T23:10:15.912Z,55.05
2018-05-14T23:12:43.534Z,55.90
2018-05-14T23:15:11.122Z,55.73
2018-05-14T23:17:38.991Z,55.96
2018-05-14T23:20:06.579Z,56.49
2018-05-14T23:22:41.887Z,56.54
2018-05-14T23:25:09.485Z,56.57
2018-05-14T23:27:37.091Z,56.78
2018-05-14T23:30:04.709Z,56.72
2018-05-14T23:32:32.298Z,56.46
2018-05-14T23:34:59.913Z,56.93
2018-05-14T23:37:27.515Z,56.80
2018-05-14T23:39:55.128Z,57.51
2018-05-14T23:42:22.716Z,56.68
2018-05-14T23:44:50.365Z,56.83
2018-05-14T23:47:18.102Z,56.91
2018-05-14T23:49:45.693Z,56.62
2018-05-14T23:52:13.310Z,57.01
2018-05-14T23:54:40.907Z,56.91
2018-05-14T23:57:08.524Z,56.65
2018-05-14T23:59:36.117Z,57.05
